sensor_id;sensor_type;location;lat;lon;timestamp;temperature;humidity
24618;DHT22;12762;51.730;5.356;2023-09-19T00:00:44;16.40;84.70
24618;DHT22;12762;51.730;5.356;2023-09-19T00:03:13;16.40;84.80
24618;DHT22;12762;51.730;5.356;2023-09-19T00:05:41;16.40;84.80
24618;DHT22;12762;51.730;5.356;2023-09-19T00:08:11;16.40;84.90
24618;DHT22;12762;51.730;5.356;2023-09-19T00:10:40;16.40;85.10
24618;DHT22;12762;51.730;5.356;2023-09-19T00:13:08;16.40;85.10
24618;DHT22;12762;51.730;5.356;2023-09-19T00:15:47;16.40;85.20
24618;DHT22;12762;51.730;5.356;2023-09-19T00:18:18;16.40;85.20
24618;DHT22;12762;51.730;5.356;2023-09-19T00:20:49;16.40;85.10
24618;DHT22;12762;51.730;5.356;2023-09-19T00:23:18;16.40;85.10
24618;DHT22;12762;51.730;5.356;2023-09-19T00:25:46;16.30;85.00
24618;DHT22;12762;51.730;5.356;2023-09-19T00:28:13;16.20;84.90
24618;DHT22;12762;51.730;5.356;2023-09-19T00:30:42;16.20;85.00
24618;DHT22;12762;51.730;5.356;2023-09-19T00:33:10;16.10;84.90
24618;DHT22;12762;51.730;5.356;2023-09-19T00:35:38;16.10;85.00
24618;DHT22;12762;51.730;5.356;2023-09-19T00:38:05;16.00;84.80
24618;DHT22;12762;51.730;5.356;2023-09-19T00:40:33;16.00;84.90
24618;DHT22;12762;51.730;5.356;2023-09-19T00:43:00;15.90;84.80
24618;DHT22;12762;51.730;5.356;2023-09-19T00:45:27;15.90;84.90
24618;DHT22;12762;51.730;5.356;2023-09-19T00:47:55;15.80;84.80
24618;DHT22;12762;51.730;5.356;2023-09-19T00:50:25;15.80;84.90
24618;DHT22;12762;51.730;5.356;2023-09-19T00:52:56;15.80;84.90
24618;DHT22;12762;51.730;5.356;2023-09-19T00:55:24;15.80;84.90
24618;DHT22;12762;51.730;5.356;2023-09-19T00:57:52;15.70;84.80
24618;DHT22;12762;51.730;5.356;2023-09-19T01:00:19;15.70;84.80
24618;DHT22;12762;51.730;5.356;2023-09-19T01:02:47;15.70;84.80
24618;DHT22;12762;51.730;5.356;2023-09-19T01:05:15;15.70;84.80
24618;DHT22;12762;51.730;5.356;2023-09-19T01:07:42;15.70;84.80
24618;DHT22;12762;51.730;5.356;2023-09-19T01:10:19;15.70;84.70
24618;DHT22;12762;51.730;5.356;2023-09-19T01:15:28;15.70;84.60
24618;DHT22;12762;51.730;5.356;2023-09-19T01:21:19;15.70;84.50
24618;DHT22;12762;51.730;5.356;2023-09-19T01:24:15;15.60;84.20
24618;DHT22;12762;51.730;5.356;2023-09-19T01:32:04;15.60;84.10
24618;DHT22;12762;51.730;5.356;2023-09-19T01:34:49;15.60;84.00
24618;DHT22;12762;51.730;5.356;2023-09-19T01:37:18;15.50;83.80
24618;DHT22;12762;51.730;5.356;2023-09-19T01:39:49;15.50;83.90
24618;DHT22;12762;51.730;5.356;2023-09-19T01:42:35;15.50;83.90
24618;DHT22;12762;51.730;5.356;2023-09-19T01:47:48;15.30;83.60
24618;DHT22;12762;51.730;5.356;2023-09-19T01:50:34;15.30;83.60
24618;DHT22;12762;51.730;5.356;2023-09-19T01:53:33;15.30;83.50
24618;DHT22;12762;51.730;5.356;2023-09-19T01:56:05;15.20;83.30
24618;DHT22;12762;51.730;5.356;2023-09-19T01:58:52;15.20;83.30
24618;DHT22;12762;51.730;5.356;2023-09-19T02:01:22;15.20;83.30
24618;DHT22;12762;51.730;5.356;2023-09-19T02:03:53;15.10;83.20
24618;DHT22;12762;51.730;5.356;2023-09-19T02:06:20;15.10;83.10
24618;DHT22;12762;51.730;5.356;2023-09-19T02:08:49;15.10;83.10
24618;DHT22;12762;51.730;5.356;2023-09-19T02:11:16;15.00;82.90
24618;DHT22;12762;51.730;5.356;2023-09-19T02:13:43;15.10;82.90
24618;DHT22;12762;51.730;5.356;2023-09-19T02:16:10;15.00;82.80
24618;DHT22;12762;51.730;5.356;2023-09-19T02:18:38;15.00;82.80
24618;DHT22;12762;51.730;5.356;2023-09-19T02:21:05;15.00;82.70
24618;DHT22;12762;51.730;5.356;2023-09-19T02:23:39;14.90;82.60
24618;DHT22;12762;51.730;5.356;2023-09-19T02:26:08;14.90;82.60
24618;DHT22;12762;51.730;5.356;2023-09-19T02:28:34;14.90;82.50
24618;DHT22;12762;51.730;5.356;2023-09-19T02:31:02;14.90;82.40
24618;DHT22;12762;51.730;5.356;2023-09-19T02:33:31;14.90;82.40
24618;DHT22;12762;51.730;5.356;2023-09-19T02:36:03;14.90;82.40
24618;DHT22;12762;51.730;5.356;2023-09-19T02:38:32;14.80;82.10
24618;DHT22;12762;51.730;5.356;2023-09-19T02:40:59;14.80;82.10
24618;DHT22;12762;51.730;5.356;2023-09-19T02:43:29;14.80;82.10
24618;DHT22;12762;51.730;5.356;2023-09-19T02:45:56;14.80;82.00
24618;DHT22;12762;51.730;5.356;2023-09-19T02:48:23;14.80;81.90
24618;DHT22;12762;51.730;5.356;2023-09-19T02:50:52;14.70;81.80
24618;DHT22;12762;51.730;5.356;2023-09-19T02:53:19;14.70;81.70
24618;DHT22;12762;51.730;5.356;2023-09-19T02:55:46;14.70;81.60
24618;DHT22;12762;51.730;5.356;2023-09-19T02:58:13;14.70;81.50
24618;DHT22;12762;51.730;5.356;2023-09-19T03:00:42;14.70;81.40
24618;DHT22;12762;51.730;5.356;2023-09-19T03:03:09;14.70;81.30
24618;DHT22;12762;51.730;5.356;2023-09-19T03:05:36;14.60;81.10
24618;DHT22;12762;51.730;5.356;2023-09-19T03:08:08;14.60;81.10
24618;DHT22;12762;51.730;5.356;2023-09-19T03:10:34;14.60;80.90
24618;DHT22;12762;51.730;5.356;2023-09-19T03:13:04;14.60;80.90
24618;DHT22;12762;51.730;5.356;2023-09-19T03:15:30;14.60;80.80
24618;DHT22;12762;51.730;5.356;2023-09-19T03:17:57;14.60;80.80
24618;DHT22;12762;51.730;5.356;2023-09-19T03:20:26;14.60;80.80
24618;DHT22;12762;51.730;5.356;2023-09-19T03:22:54;14.60;80.70
24618;DHT22;12762;51.730;5.356;2023-09-19T03:25:20;14.50;80.40
24618;DHT22;12762;51.730;5.356;2023-09-19T03:27:49;14.60;80.50
24618;DHT22;12762;51.730;5.356;2023-09-19T03:30:16;14.50;80.40
24618;DHT22;12762;51.730;5.356;2023-09-19T03:32:46;14.50;80.30
24618;DHT22;12762;51.730;5.356;2023-09-19T03:35:14;14.60;80.30
24618;DHT22;12762;51.730;5.356;2023-09-19T03:37:42;14.60;80.20
24618;DHT22;12762;51.730;5.356;2023-09-19T03:40:09;14.50;80.00
24618;DHT22;12762;51.730;5.356;2023-09-19T03:42:42;14.50;79.90
24618;DHT22;12762;51.730;5.356;2023-09-19T03:45:09;14.50;79.90
24618;DHT22;12762;51.730;5.356;2023-09-19T03:47:40;14.50;79.70
24618;DHT22;12762;51.730;5.356;2023-09-19T03:50:10;14.50;79.80
24618;DHT22;12762;51.730;5.356;2023-09-19T03:52:44;14.50;79.70
24618;DHT22;12762;51.730;5.356;2023-09-19T03:55:11;14.50;79.60
24618;DHT22;12762;51.730;5.356;2023-09-19T03:57:38;14.50;79.60
24618;DHT22;12762;51.730;5.356;2023-09-19T04:00:06;14.50;80.30
24618;DHT22;12762;51.730;5.356;2023-09-19T04:02:39;14.50;79.40
24618;DHT22;12762;51.730;5.356;2023-09-19T04:05:13;14.60;79.50
24618;DHT22;12762;51.730;5.356;2023-09-19T04:07:40;14.60;79.40
24618;DHT22;12762;51.730;5.356;2023-09-19T04:10:07;14.50;79.20
24618;DHT22;12762;51.730;5.356;2023-09-19T04:12:35;14.50;79.20
24618;DHT22;12762;51.730;5.356;2023-09-19T04:15:02;14.50;79.20
24618;DHT22;12762;51.730;5.356;2023-09-19T04:17:30;14.50;79.20
24618;DHT22;12762;51.730;5.356;2023-09-19T04:19:57;14.50;79.20
24618;DHT22;12762;51.730;5.356;2023-09-19T04:22:26;14.50;79.20
24618;DHT22;12762;51.730;5.356;2023-09-19T04:24:53;14.60;79.20
24618;DHT22;12762;51.730;5.356;2023-09-19T04:27:20;14.60;79.20
24618;DHT22;12762;51.730;5.356;2023-09-19T04:29:49;14.60;79.40
24618;DHT22;12762;51.730;5.356;2023-09-19T04:32:20;14.50;79.30
24618;DHT22;12762;51.730;5.356;2023-09-19T04:34:46;14.50;79.30
24618;DHT22;12762;51.730;5.356;2023-09-19T04:37:19;14.50;79.40
24618;DHT22;12762;51.730;5.356;2023-09-19T04:39:45;14.60;79.50
24618;DHT22;12762;51.730;5.356;2023-09-19T04:42:13;14.50;79.50
24618;DHT22;12762;51.730;5.356;2023-09-19T04:44:41;14.50;79.60
24618;DHT22;12762;51.730;5.356;2023-09-19T04:47:08;14.50;79.60
24618;DHT22;12762;51.730;5.356;2023-09-19T04:49:35;14.60;79.70
24618;DHT22;12762;51.730;5.356;2023-09-19T04:52:02;14.60;79.70
24618;DHT22;12762;51.730;5.356;2023-09-19T04:54:34;14.60;79.70
24618;DHT22;12762;51.730;5.356;2023-09-19T04:57:01;14.60;79.70
24618;DHT22;12762;51.730;5.356;2023-09-19T04:59:28;14.60;79.70
24618;DHT22;12762;51.730;5.356;2023-09-19T05:01:55;14.70;79.80
24618;DHT22;12762;51.730;5.356;2023-09-19T05:04:22;14.70;79.80
24618;DHT22;12762;51.730;5.356;2023-09-19T05:06:49;14.70;79.80
24618;DHT22;12762;51.730;5.356;2023-09-19T05:09:17;14.70;79.80
24618;DHT22;12762;51.730;5.356;2023-09-19T05:11:46;14.70;79.90
24618;DHT22;12762;51.730;5.356;2023-09-19T05:14:13;14.70;80.00
24618;DHT22;12762;51.730;5.356;2023-09-19T05:16:40;14.70;79.90
24618;DHT22;12762;51.730;5.356;2023-09-19T05:19:07;14.70;80.00
24618;DHT22;12762;51.730;5.356;2023-09-19T05:21:34;14.80;80.00
24618;DHT22;12762;51.730;5.356;2023-09-19T05:24:01;14.80;80.00
24618;DHT22;12762;51.730;5.356;2023-09-19T05:26:28;14.80;80.00
24618;DHT22;12762;51.730;5.356;2023-09-19T05:28:55;14.80;80.00
24618;DHT22;12762;51.730;5.356;2023-09-19T05:31:22;14.90;80.10
24618;DHT22;12762;51.730;5.356;2023-09-19T05:33:49;14.90;80.20
24618;DHT22;12762;51.730;5.356;2023-09-19T05:36:16;14.90;80.20
24618;DHT22;12762;51.730;5.356;2023-09-19T05:38:44;14.90;80.20
24618;DHT22;12762;51.730;5.356;2023-09-19T05:41:11;14.90;80.30
24618;DHT22;12762;51.730;5.356;2023-09-19T05:43:40;14.90;80.30
24618;DHT22;12762;51.730;5.356;2023-09-19T05:46:08;14.90;80.30
24618;DHT22;12762;51.730;5.356;2023-09-19T05:48:35;14.90;80.30
24618;DHT22;12762;51.730;5.356;2023-09-19T05:51:02;14.90;80.40
24618;DHT22;12762;51.730;5.356;2023-09-19T05:53:29;14.90;80.40
24618;DHT22;12762;51.730;5.356;2023-09-19T05:55:56;14.90;80.60
24618;DHT22;12762;51.730;5.356;2023-09-19T05:58:23;14.90;80.60
24618;DHT22;12762;51.730;5.356;2023-09-19T06:00:50;15.00;80.70
24618;DHT22;12762;51.730;5.356;2023-09-19T06:03:17;15.00;80.80
24618;DHT22;12762;51.730;5.356;2023-09-19T06:05:45;15.00;80.90
24618;DHT22;12762;51.730;5.356;2023-09-19T06:08:13;15.00;80.90
24618;DHT22;12762;51.730;5.356;2023-09-19T06:10:40;15.00;80.90
24618;DHT22;12762;51.730;5.356;2023-09-19T06:13:07;15.00;80.90
24618;DHT22;12762;51.730;5.356;2023-09-19T06:15:36;15.00;81.00
24618;DHT22;12762;51.730;5.356;2023-09-19T06:18:10;15.10;81.20
24618;DHT22;12762;51.730;5.356;2023-09-19T06:20:40;15.10;81.20
24618;DHT22;12762;51.730;5.356;2023-09-19T06:23:12;15.10;81.20
24618;DHT22;12762;51.730;5.356;2023-09-19T06:25:39;15.10;81.10
24618;DHT22;12762;51.730;5.356;2023-09-19T06:28:07;15.20;81.20
24618;DHT22;12762;51.730;5.356;2023-09-19T06:30:34;15.20;81.20
24618;DHT22;12762;51.730;5.356;2023-09-19T06:33:02;15.20;81.20
24618;DHT22;12762;51.730;5.356;2023-09-19T06:35:32;15.30;81.30
24618;DHT22;12762;51.730;5.356;2023-09-19T06:38:02;15.30;81.30
24618;DHT22;12762;51.730;5.356;2023-09-19T06:40:30;15.30;81.30
24618;DHT22;12762;51.730;5.356;2023-09-19T06:42:57;15.40;81.40
24618;DHT22;12762;51.730;5.356;2023-09-19T06:45:24;15.40;81.30
24618;DHT22;12762;51.730;5.356;2023-09-19T06:47:53;15.40;81.40
24618;DHT22;12762;51.730;5.356;2023-09-19T06:50:25;15.50;81.50
24618;DHT22;12762;51.730;5.356;2023-09-19T06:52:55;15.50;81.40
24618;DHT22;12762;51.730;5.356;2023-09-19T06:55:24;15.50;81.30
24618;DHT22;12762;51.730;5.356;2023-09-19T06:57:52;15.50;81.40
24618;DHT22;12762;51.730;5.356;2023-09-19T07:00:23;15.60;81.40
24618;DHT22;12762;51.730;5.356;2023-09-19T07:05:26;15.60;81.30
24618;DHT22;12762;51.730;5.356;2023-09-19T07:07:54;15.60;81.30
24618;DHT22;12762;51.730;5.356;2023-09-19T07:10:22;15.60;81.30
24618;DHT22;12762;51.730;5.356;2023-09-19T07:13:01;15.70;81.30
24618;DHT22;12762;51.730;5.356;2023-09-19T07:15:29;15.70;81.30
24618;DHT22;12762;51.730;5.356;2023-09-19T07:17:57;15.70;81.30
24618;DHT22;12762;51.730;5.356;2023-09-19T07:20:24;15.80;81.30
24618;DHT22;12762;51.730;5.356;2023-09-19T07:22:58;15.80;81.20
24618;DHT22;12762;51.730;5.356;2023-09-19T07:25:29;15.90;81.20
24618;DHT22;12762;51.730;5.356;2023-09-19T07:27:57;16.00;81.20
24618;DHT22;12762;51.730;5.356;2023-09-19T07:30:28;16.00;81.10
24618;DHT22;12762;51.730;5.356;2023-09-19T07:32:56;16.10;81.00
24618;DHT22;12762;51.730;5.356;2023-09-19T07:35:23;16.20;81.00
24618;DHT22;12762;51.730;5.356;2023-09-19T07:37:50;16.20;80.90
24618;DHT22;12762;51.730;5.356;2023-09-19T07:40:24;16.30;81.00
24618;DHT22;12762;51.730;5.356;2023-09-19T07:42:54;16.70;81.30
24618;DHT22;12762;51.730;5.356;2023-09-19T07:45:28;17.30;81.20
24618;DHT22;12762;51.730;5.356;2023-09-19T07:47:57;17.80;80.00
24618;DHT22;12762;51.730;5.356;2023-09-19T07:50:24;18.30;79.40
24618;DHT22;12762;51.730;5.356;2023-09-19T07:52:53;18.60;78.20
24618;DHT22;12762;51.730;5.356;2023-09-19T07:55:22;18.80;77.30
24618;DHT22;12762;51.730;5.356;2023-09-19T07:57:53;19.10;77.50
24618;DHT22;12762;51.730;5.356;2023-09-19T08:00:20;19.40;76.40
24618;DHT22;12762;51.730;5.356;2023-09-19T08:02:47;19.50;75.90
24618;DHT22;12762;51.730;5.356;2023-09-19T08:05:24;19.60;75.30
24618;DHT22;12762;51.730;5.356;2023-09-19T08:07:53;19.60;74.70
24618;DHT22;12762;51.730;5.356;2023-09-19T08:10:24;19.60;74.50
24618;DHT22;12762;51.730;5.356;2023-09-19T08:12:54;19.60;74.50
24618;DHT22;12762;51.730;5.356;2023-09-19T08:15:24;19.60;74.60
24618;DHT22;12762;51.730;5.356;2023-09-19T08:17:51;19.60;74.40
24618;DHT22;12762;51.730;5.356;2023-09-19T08:20:21;19.50;74.10
24618;DHT22;12762;51.730;5.356;2023-09-19T08:22:53;19.40;74.50
24618;DHT22;12762;51.730;5.356;2023-09-19T08:25:22;19.40;74.30
24618;DHT22;12762;51.730;5.356;2023-09-19T08:27:50;19.30;74.60
24618;DHT22;12762;51.730;5.356;2023-09-19T08:30:19;19.40;74.80
24618;DHT22;12762;51.730;5.356;2023-09-19T08:32:51;19.40;74.90
24618;DHT22;12762;51.730;5.356;2023-09-19T08:35:17;19.40;74.60
24618;DHT22;12762;51.730;5.356;2023-09-19T08:37:44;19.30;74.70
24618;DHT22;12762;51.730;5.356;2023-09-19T08:40:17;19.40;75.10
24618;DHT22;12762;51.730;5.356;2023-09-19T08:42:55;19.40;74.70
24618;DHT22;12762;51.730;5.356;2023-09-19T08:45:26;19.40;74.80
24618;DHT22;12762;51.730;5.356;2023-09-19T08:48:23;19.40;74.90
24618;DHT22;12762;51.730;5.356;2023-09-19T08:51:26;19.50;74.80
24618;DHT22;12762;51.730;5.356;2023-09-19T08:54:07;19.50;74.90
24618;DHT22;12762;51.730;5.356;2023-09-19T08:56:34;19.60;74.70
24618;DHT22;12762;51.730;5.356;2023-09-19T08:59:06;19.70;74.60
24618;DHT22;12762;51.730;5.356;2023-09-19T09:01:39;19.90;74.70
24618;DHT22;12762;51.730;5.356;2023-09-19T09:04:09;20.00;73.30
24618;DHT22;12762;51.730;5.356;2023-09-19T09:06:40;20.10;73.60
24618;DHT22;12762;51.730;5.356;2023-09-19T09:09:10;20.10;73.50
24618;DHT22;12762;51.730;5.356;2023-09-19T09:11:38;20.20;73.40
24618;DHT22;12762;51.730;5.356;2023-09-19T09:14:06;20.20;73.30
24618;DHT22;12762;51.730;5.356;2023-09-19T09:16:34;20.10;72.90
24618;DHT22;12762;51.730;5.356;2023-09-19T09:19:01;20.00;72.70
24618;DHT22;12762;51.730;5.356;2023-09-19T09:21:31;20.10;72.70
24618;DHT22;12762;51.730;5.356;2023-09-19T09:24:30;20.10;72.90
24618;DHT22;12762;51.730;5.356;2023-09-19T09:27:03;20.20;71.80
24618;DHT22;12762;51.730;5.356;2023-09-19T09:29:44;20.30;72.40
24618;DHT22;12762;51.730;5.356;2023-09-19T09:32:24;20.30;72.50
24618;DHT22;12762;51.730;5.356;2023-09-19T09:34:56;20.30;72.40
24618;DHT22;12762;51.730;5.356;2023-09-19T09:37:28;20.40;73.20
24618;DHT22;12762;51.730;5.356;2023-09-19T09:40:01;20.40;72.00
24618;DHT22;12762;51.730;5.356;2023-09-19T09:42:57;20.50;72.10
24618;DHT22;12762;51.730;5.356;2023-09-19T09:45:27;20.50;71.70
24618;DHT22;12762;51.730;5.356;2023-09-19T09:48:00;20.50;71.70
24618;DHT22;12762;51.730;5.356;2023-09-19T09:50:34;20.50;71.20
24618;DHT22;12762;51.730;5.356;2023-09-19T09:53:27;20.40;71.40
24618;DHT22;12762;51.730;5.356;2023-09-19T09:56:09;20.40;71.40
24618;DHT22;12762;51.730;5.356;2023-09-19T09:58:40;20.40;71.20
24618;DHT22;12762;51.730;5.356;2023-09-19T10:01:15;20.50;71.20
24618;DHT22;12762;51.730;5.356;2023-09-19T10:03:47;20.60;71.20
24618;DHT22;12762;51.730;5.356;2023-09-19T10:06:16;20.70;70.60
24618;DHT22;12762;51.730;5.356;2023-09-19T10:09:09;20.70;70.40
24618;DHT22;12762;51.730;5.356;2023-09-19T10:11:44;20.80;70.60
24618;DHT22;12762;51.730;5.356;2023-09-19T10:14:17;20.90;70.70
24618;DHT22;12762;51.730;5.356;2023-09-19T10:16:47;21.00;69.90
24618;DHT22;12762;51.730;5.356;2023-09-19T10:19:35;21.10;69.50
24618;DHT22;12762;51.730;5.356;2023-09-19T10:22:04;21.00;69.50
24618;DHT22;12762;51.730;5.356;2023-09-19T10:24:39;20.90;69.70
24618;DHT22;12762;51.730;5.356;2023-09-19T10:27:23;21.00;69.60
24618;DHT22;12762;51.730;5.356;2023-09-19T10:29:54;21.10;70.00
24618;DHT22;12762;51.730;5.356;2023-09-19T10:32:23;21.30;69.80
24618;DHT22;12762;51.730;5.356;2023-09-19T10:34:52;21.60;69.20
24618;DHT22;12762;51.730;5.356;2023-09-19T10:37:27;21.60;68.20
24618;DHT22;12762;51.730;5.356;2023-09-19T10:39:56;21.70;68.40
24618;DHT22;12762;51.730;5.356;2023-09-19T10:42:25;21.70;68.60
24618;DHT22;12762;51.730;5.356;2023-09-19T10:44:58;21.90;68.80
24618;DHT22;12762;51.730;5.356;2023-09-19T10:47:26;22.00;67.60
24618;DHT22;12762;51.730;5.356;2023-09-19T10:49:53;21.90;67.30
24618;DHT22;12762;51.730;5.356;2023-09-19T10:52:24;21.90;66.90
24618;DHT22;12762;51.730;5.356;2023-09-19T10:54:54;21.90;67.50
24618;DHT22;12762;51.730;5.356;2023-09-19T10:57:26;21.90;66.50
24618;DHT22;12762;51.730;5.356;2023-09-19T11:00:08;21.80;66.60
24618;DHT22;12762;51.730;5.356;2023-09-19T11:05:39;21.90;65.10
24618;DHT22;12762;51.730;5.356;2023-09-19T11:08:08;21.90;66.70
24618;DHT22;12762;51.730;5.356;2023-09-19T11:10:49;21.90;65.70
24618;DHT22;12762;51.730;5.356;2023-09-19T11:13:24;21.80;65.40
24618;DHT22;12762;51.730;5.356;2023-09-19T11:26:49;22.40;65.40
24618;DHT22;12762;51.730;5.356;2023-09-19T11:29:25;22.60;64.80
24618;DHT22;12762;51.730;5.356;2023-09-19T11:31:53;22.60;63.10
24618;DHT22;12762;51.730;5.356;2023-09-19T11:34:43;22.60;63.50
24618;DHT22;12762;51.730;5.356;2023-09-19T11:40:09;22.70;63.30
24618;DHT22;12762;51.730;5.356;2023-09-19T11:42:44;22.90;62.30
24618;DHT22;12762;51.730;5.356;2023-09-19T11:48:08;22.90;62.00
24618;DHT22;12762;51.730;5.356;2023-09-19T11:50:36;22.80;62.00
24618;DHT22;12762;51.730;5.356;2023-09-19T11:53:05;22.70;61.60
24618;DHT22;12762;51.730;5.356;2023-09-19T11:55:32;22.70;61.70
24618;DHT22;12762;51.730;5.356;2023-09-19T11:58:01;22.70;62.40
24618;DHT22;12762;51.730;5.356;2023-09-19T12:00:28;22.90;62.40
24618;DHT22;12762;51.730;5.356;2023-09-19T12:02:58;22.90;62.10
24618;DHT22;12762;51.730;5.356;2023-09-19T12:05:29;22.90;61.60
24618;DHT22;12762;51.730;5.356;2023-09-19T12:07:56;23.00;61.80
24618;DHT22;12762;51.730;5.356;2023-09-19T12:10:23;22.90;62.00
24618;DHT22;12762;51.730;5.356;2023-09-19T12:12:50;22.90;61.30
24618;DHT22;12762;51.730;5.356;2023-09-19T12:15:26;22.80;61.60
24618;DHT22;12762;51.730;5.356;2023-09-19T12:18:00;22.80;61.90
24618;DHT22;12762;51.730;5.356;2023-09-19T12:20:46;22.80;61.70
24618;DHT22;12762;51.730;5.356;2023-09-19T12:23:16;22.70;62.00
24618;DHT22;12762;51.730;5.356;2023-09-19T12:25:44;22.50;61.80
24618;DHT22;12762;51.730;5.356;2023-09-19T12:28:15;22.40;62.00
24618;DHT22;12762;51.730;5.356;2023-09-19T12:30:43;22.20;62.20
24618;DHT22;12762;51.730;5.356;2023-09-19T12:33:20;21.90;62.10
24618;DHT22;12762;51.730;5.356;2023-09-19T12:35:47;21.80;62.70
24618;DHT22;12762;51.730;5.356;2023-09-19T12:38:28;21.60;63.00
24618;DHT22;12762;51.730;5.356;2023-09-19T12:40:56;21.60;63.50
24618;DHT22;12762;51.730;5.356;2023-09-19T12:43:26;21.60;63.70
24618;DHT22;12762;51.730;5.356;2023-09-19T12:45:53;21.80;63.80
24618;DHT22;12762;51.730;5.356;2023-09-19T12:48:25;21.80;63.50
24618;DHT22;12762;51.730;5.356;2023-09-19T12:51:06;21.70;63.20
24618;DHT22;12762;51.730;5.356;2023-09-19T12:56:15;21.70;63.30
24618;DHT22;12762;51.730;5.356;2023-09-19T12:58:57;21.60;63.20
24618;DHT22;12762;51.730;5.356;2023-09-19T13:01:26;21.60;63.60
24618;DHT22;12762;51.730;5.356;2023-09-19T13:06:49;21.50;63.70
24618;DHT22;12762;51.730;5.356;2023-09-19T13:09:18;21.40;63.70
24618;DHT22;12762;51.730;5.356;2023-09-19T13:11:45;21.40;63.90
24618;DHT22;12762;51.730;5.356;2023-09-19T13:17:03;21.30;64.00
24618;DHT22;12762;51.730;5.356;2023-09-19T13:19:47;21.30;64.20
24618;DHT22;12762;51.730;5.356;2023-09-19T13:22:40;21.30;64.30
24618;DHT22;12762;51.730;5.356;2023-09-19T13:25:14;21.20;64.30
24618;DHT22;12762;51.730;5.356;2023-09-19T13:30:21;21.20;64.30
24618;DHT22;12762;51.730;5.356;2023-09-19T13:32:49;21.10;64.30
24618;DHT22;12762;51.730;5.356;2023-09-19T13:35:16;21.20;64.40
24618;DHT22;12762;51.730;5.356;2023-09-19T13:37:43;21.20;64.40
24618;DHT22;12762;51.730;5.356;2023-09-19T13:40:15;21.40;64.30
24618;DHT22;12762;51.730;5.356;2023-09-19T13:42:43;21.50;64.40
24618;DHT22;12762;51.730;5.356;2023-09-19T13:45:10;21.50;64.10
24618;DHT22;12762;51.730;5.356;2023-09-19T13:47:40;21.70;64.20
24618;DHT22;12762;51.730;5.356;2023-09-19T13:50:08;21.70;64.80
24618;DHT22;12762;51.730;5.356;2023-09-19T13:52:37;21.80;63.80
24618;DHT22;12762;51.730;5.356;2023-09-19T13:55:05;21.80;63.80
24618;DHT22;12762;51.730;5.356;2023-09-19T13:57:33;21.80;63.70
24618;DHT22;12762;51.730;5.356;2023-09-19T14:00:00;21.90;63.70
24618;DHT22;12762;51.730;5.356;2023-09-19T14:02:27;21.90;63.40
24618;DHT22;12762;51.730;5.356;2023-09-19T14:04:54;21.90;63.60
24618;DHT22;12762;51.730;5.356;2023-09-19T14:07:21;21.90;63.30
24618;DHT22;12762;51.730;5.356;2023-09-19T14:09:48;21.80;63.40
24618;DHT22;12762;51.730;5.356;2023-09-19T14:12:18;21.80;63.40
24618;DHT22;12762;51.730;5.356;2023-09-19T14:14:44;21.70;63.50
24618;DHT22;12762;51.730;5.356;2023-09-19T14:17:11;21.60;63.70
24618;DHT22;12762;51.730;5.356;2023-09-19T14:19:41;21.60;63.70
24618;DHT22;12762;51.730;5.356;2023-09-19T14:22:12;21.60;63.80
24618;DHT22;12762;51.730;5.356;2023-09-19T14:24:40;21.60;63.90
24618;DHT22;12762;51.730;5.356;2023-09-19T14:27:07;21.50;63.70
24618;DHT22;12762;51.730;5.356;2023-09-19T14:29:36;21.50;63.90
24618;DHT22;12762;51.730;5.356;2023-09-19T14:32:03;21.50;63.90
24618;DHT22;12762;51.730;5.356;2023-09-19T14:34:30;21.40;64.10
24618;DHT22;12762;51.730;5.356;2023-09-19T14:36:57;21.40;64.30
24618;DHT22;12762;51.730;5.356;2023-09-19T14:39:24;21.30;64.30
24618;DHT22;12762;51.730;5.356;2023-09-19T14:41:51;21.30;64.40
24618;DHT22;12762;51.730;5.356;2023-09-19T14:44:18;21.30;64.50
24618;DHT22;12762;51.730;5.356;2023-09-19T14:46:47;21.30;64.60
24618;DHT22;12762;51.730;5.356;2023-09-19T14:49:14;21.30;64.50
24618;DHT22;12762;51.730;5.356;2023-09-19T14:51:42;21.20;64.30
24618;DHT22;12762;51.730;5.356;2023-09-19T14:54:14;21.20;64.60
24618;DHT22;12762;51.730;5.356;2023-09-19T14:56:43;21.20;64.60
24618;DHT22;12762;51.730;5.356;2023-09-19T14:59:11;21.10;64.40
24618;DHT22;12762;51.730;5.356;2023-09-19T15:01:37;21.10;64.60
24618;DHT22;12762;51.730;5.356;2023-09-19T15:04:05;21.00;64.70
24618;DHT22;12762;51.730;5.356;2023-09-19T15:06:32;21.00;64.70
24618;DHT22;12762;51.730;5.356;2023-09-19T15:09:00;21.00;64.80
24618;DHT22;12762;51.730;5.356;2023-09-19T15:11:27;20.90;64.80
24618;DHT22;12762;51.730;5.356;2023-09-19T15:13:54;20.90;65.10
24618;DHT22;12762;51.730;5.356;2023-09-19T15:16:21;20.90;65.00
24618;DHT22;12762;51.730;5.356;2023-09-19T15:18:51;20.90;65.10
24618;DHT22;12762;51.730;5.356;2023-09-19T15:21:18;20.90;65.20
24618;DHT22;12762;51.730;5.356;2023-09-19T15:23:45;20.80;65.20
24618;DHT22;12762;51.730;5.356;2023-09-19T15:26:14;20.80;65.30
24618;DHT22;12762;51.730;5.356;2023-09-19T15:28:47;20.80;65.20
24618;DHT22;12762;51.730;5.356;2023-09-19T15:31:15;20.70;65.30
24618;DHT22;12762;51.730;5.356;2023-09-19T15:33:45;20.70;65.40
24618;DHT22;12762;51.730;5.356;2023-09-19T15:36:13;20.70;65.50
24618;DHT22;12762;51.730;5.356;2023-09-19T15:39:03;20.60;65.40
24618;DHT22;12762;51.730;5.356;2023-09-19T15:41:34;20.60;65.60
24618;DHT22;12762;51.730;5.356;2023-09-19T15:44:04;20.60;65.70
24618;DHT22;12762;51.730;5.356;2023-09-19T15:46:32;20.60;65.70
24618;DHT22;12762;51.730;5.356;2023-09-19T15:49:03;20.60;65.80
24618;DHT22;12762;51.730;5.356;2023-09-19T15:51:30;20.50;65.90
24618;DHT22;12762;51.730;5.356;2023-09-19T15:53:57;20.50;65.80
24618;DHT22;12762;51.730;5.356;2023-09-19T15:56:26;20.50;65.90
24618;DHT22;12762;51.730;5.356;2023-09-19T15:58:54;20.50;65.90
24618;DHT22;12762;51.730;5.356;2023-09-19T16:01:22;20.50;66.00
24618;DHT22;12762;51.730;5.356;2023-09-19T16:03:51;20.50;66.10
24618;DHT22;12762;51.730;5.356;2023-09-19T16:06:27;20.50;66.20
24618;DHT22;12762;51.730;5.356;2023-09-19T16:08:56;20.50;66.20
24618;DHT22;12762;51.730;5.356;2023-09-19T16:11:29;20.50;66.30
24618;DHT22;12762;51.730;5.356;2023-09-19T16:14:02;20.50;66.30
24618;DHT22;12762;51.730;5.356;2023-09-19T16:16:29;20.50;66.30
24618;DHT22;12762;51.730;5.356;2023-09-19T16:19:08;20.50;66.40
24618;DHT22;12762;51.730;5.356;2023-09-19T16:21:38;20.50;66.50
24618;DHT22;12762;51.730;5.356;2023-09-19T16:24:07;20.50;66.50
24618;DHT22;12762;51.730;5.356;2023-09-19T16:26:36;20.50;66.60
24618;DHT22;12762;51.730;5.356;2023-09-19T16:29:04;20.50;66.60
24618;DHT22;12762;51.730;5.356;2023-09-19T16:31:31;20.40;66.50
24618;DHT22;12762;51.730;5.356;2023-09-19T16:33:59;20.40;66.50
24618;DHT22;12762;51.730;5.356;2023-09-19T16:36:27;20.40;66.60